sensor_id;sensor_type;location;lat;lon;timestamp;P1;durP1;ratioP1;P2;durP2;ratioP2
42200;SDS011;27869;51.442;7.540;2022-08-21T00:00:51;17.92;;;4.50;;
42200;SDS011;27869;51.442;7.540;2022-08-21T00:03:18;13.63;;;4.15;;
42200;SDS011;27869;51.442;7.540;2022-08-21T00:05:47;13.27;;;3.83;;
42200;SDS011;27869;51.442;7.540;2022-08-21T00:08:15;13.82;;;4.57;;
42200;SDS011;27869;51.442;7.540;2022-08-21T00:10:46;13.48;;;4.63;;
42200;SDS011;27869;51.442;7.540;2022-08-21T00:13:15;15.23;;;4.15;;
42200;SDS011;27869;51.442;7.540;2022-08-21T00:15:44;16.65;;;4.30;;
42200;SDS011;27869;51.442;7.540;2022-08-21T00:18:12;15.63;;;4.38;;
42200;SDS011;27869;51.442;7.540;2022-08-21T00:20:39;19.02;;;4.85;;
42200;SDS011;27869;51.442;7.540;2022-08-21T00:23:09;14.95;;;5.05;;
42200;SDS011;27869;51.442;7.540;2022-08-21T00:25:36;13.07;;;4.57;;
42200;SDS011;27869;51.442;7.540;2022-08-21T00:28:03;15.73;;;4.88;;
42200;SDS011;27869;51.442;7.540;2022-08-21T00:30:31;16.23;;;5.07;;
42200;SDS011;27869;51.442;7.540;2022-08-21T00:32:59;16.60;;;5.05;;
42200;SDS011;27869;51.442;7.540;2022-08-21T00:35:28;17.40;;;5.00;;
42200;SDS011;27869;51.442;7.540;2022-08-21T00:37:57;16.33;;;4.60;;
42200;SDS011;27869;51.442;7.540;2022-08-21T00:40:28;15.73;;;4.63;;
42200;SDS011;27869;51.442;7.540;2022-08-21T00:42:56;16.08;;;5.57;;
42200;SDS011;27869;51.442;7.540;2022-08-21T00:45:23;17.83;;;5.55;;
42200;SDS011;27869;51.442;7.540;2022-08-21T00:47:52;18.70;;;5.50;;
42200;SDS011;27869;51.442;7.540;2022-08-21T00:50:20;18.25;;;5.32;;
42200;SDS011;27869;51.442;7.540;2022-08-21T00:55:16;16.08;;;5.15;;
42200;SDS011;27869;51.442;7.540;2022-08-21T00:57:46;16.30;;;5.57;;
42200;SDS011;27869;51.442;7.540;2022-08-21T01:00:16;16.92;;;5.20;;
42200;SDS011;27869;51.442;7.540;2022-08-21T01:02:46;15.73;;;5.53;;
42200;SDS011;27869;51.442;7.540;2022-08-21T01:05:13;20.02;;;5.40;;
42200;SDS011;27869;51.442;7.540;2022-08-21T01:07:41;18.77;;;5.68;;
42200;SDS011;27869;51.442;7.540;2022-08-21T01:10:09;19.73;;;5.25;;
42200;SDS011;27869;51.442;7.540;2022-08-21T01:12:37;15.65;;;5.53;;
42200;SDS011;27869;51.442;7.540;2022-08-21T01:15:10;15.63;;;5.43;;
42200;SDS011;27869;51.442;7.540;2022-08-21T01:17:40;16.88;;;6.07;;
42200;SDS011;27869;51.442;7.540;2022-08-21T01:20:08;18.20;;;6.28;;
42200;SDS011;27869;51.442;7.540;2022-08-21T01:22:37;16.20;;;5.35;;
42200;SDS011;27869;51.442;7.540;2022-08-21T01:25:05;18.65;;;6.10;;
42200;SDS011;27869;51.442;7.540;2022-08-21T01:27:33;16.15;;;5.50;;
42200;SDS011;27869;51.442;7.540;2022-08-21T01:30:02;17.58;;;5.45;;
42200;SDS011;27869;51.442;7.540;2022-08-21T01:32:35;17.48;;;5.22;;
42200;SDS011;27869;51.442;7.540;2022-08-21T01:35:03;15.30;;;5.57;;
42200;SDS011;27869;51.442;7.540;2022-08-21T01:39:59;20.35;;;5.07;;
42200;SDS011;27869;51.442;7.540;2022-08-21T01:42:26;17.83;;;4.85;;
42200;SDS011;27869;51.442;7.540;2022-08-21T01:44:53;14.20;;;4.97;;
42200;SDS011;27869;51.442;7.540;2022-08-21T01:47:20;15.93;;;5.40;;
42200;SDS011;27869;51.442;7.540;2022-08-21T01:49:47;17.58;;;5.47;;
42200;SDS011;27869;51.442;7.540;2022-08-21T01:52:14;13.60;;;5.43;;
42200;SDS011;27869;51.442;7.540;2022-08-21T01:54:41;16.85;;;5.30;;
42200;SDS011;27869;51.442;7.540;2022-08-21T01:57:10;16.50;;;5.35;;
42200;SDS011;27869;51.442;7.540;2022-08-21T01:59:38;13.95;;;5.13;;
42200;SDS011;27869;51.442;7.540;2022-08-21T02:02:05;19.45;;;5.95;;
42200;SDS011;27869;51.442;7.540;2022-08-21T02:04:32;14.93;;;5.72;;
42200;SDS011;27869;51.442;7.540;2022-08-21T02:06:59;15.70;;;5.30;;
42200;SDS011;27869;51.442;7.540;2022-08-21T02:09:27;15.63;;;5.53;;
42200;SDS011;27869;51.442;7.540;2022-08-21T02:11:54;16.10;;;5.30;;
42200;SDS011;27869;51.442;7.540;2022-08-21T02:14:23;16.30;;;5.65;;
42200;SDS011;27869;51.442;7.540;2022-08-21T02:16:50;14.98;;;5.38;;
42200;SDS011;27869;51.442;7.540;2022-08-21T02:19:17;16.00;;;5.22;;
42200;SDS011;27869;51.442;7.540;2022-08-21T02:21:44;14.60;;;5.05;;
42200;SDS011;27869;51.442;7.540;2022-08-21T02:24:11;16.40;;;4.82;;
42200;SDS011;27869;51.442;7.540;2022-08-21T02:26:38;20.75;;;5.78;;
42200;SDS011;27869;51.442;7.540;2022-08-21T02:29:05;15.07;;;4.75;;
42200;SDS011;27869;51.442;7.540;2022-08-21T02:31:33;13.85;;;4.82;;
42200;SDS011;27869;51.442;7.540;2022-08-21T02:34:00;14.32;;;4.95;;
42200;SDS011;27869;51.442;7.540;2022-08-21T02:36:27;16.75;;;5.13;;
42200;SDS011;27869;51.442;7.540;2022-08-21T02:38:54;14.55;;;4.95;;
42200;SDS011;27869;51.442;7.540;2022-08-21T02:41:21;15.02;;;4.72;;
42200;SDS011;27869;51.442;7.540;2022-08-21T02:43:49;19.73;;;4.80;;
42200;SDS011;27869;51.442;7.540;2022-08-21T02:46:17;15.00;;;5.00;;
42200;SDS011;27869;51.442;7.540;2022-08-21T02:48:47;15.00;;;4.93;;
42200;SDS011;27869;51.442;7.540;2022-08-21T02:51:15;16.70;;;5.43;;
42200;SDS011;27869;51.442;7.540;2022-08-21T02:56:12;16.08;;;4.72;;
42200;SDS011;27869;51.442;7.540;2022-08-21T02:58:41;15.68;;;4.45;;
42200;SDS011;27869;51.442;7.540;2022-08-21T03:01:09;15.23;;;4.60;;
42200;SDS011;27869;51.442;7.540;2022-08-21T03:03:38;16.88;;;5.13;;
42200;SDS011;27869;51.442;7.540;2022-08-21T03:06:07;14.85;;;5.53;;
42200;SDS011;27869;51.442;7.540;2022-08-21T03:08:36;17.48;;;5.53;;
42200;SDS011;27869;51.442;7.540;2022-08-21T03:11:03;15.02;;;5.68;;
42200;SDS011;27869;51.442;7.540;2022-08-21T03:13:31;18.58;;;5.28;;
42200;SDS011;27869;51.442;7.540;2022-08-21T03:15:58;19.23;;;4.93;;
42200;SDS011;27869;51.442;7.540;2022-08-21T03:18:25;17.80;;;5.18;;
42200;SDS011;27869;51.442;7.540;2022-08-21T03:20:52;15.52;;;5.13;;
42200;SDS011;27869;51.442;7.540;2022-08-21T03:23:21;22.50;;;5.30;;
42200;SDS011;27869;51.442;7.540;2022-08-21T03:25:48;16.38;;;5.00;;
42200;SDS011;27869;51.442;7.540;2022-08-21T03:28:17;13.13;;;4.90;;
42200;SDS011;27869;51.442;7.540;2022-08-21T03:30:47;19.35;;;5.03;;
42200;SDS011;27869;51.442;7.540;2022-08-21T03:33:15;13.35;;;4.70;;
42200;SDS011;27869;51.442;7.540;2022-08-21T03:35:46;17.23;;;5.65;;
42200;SDS011;27869;51.442;7.540;2022-08-21T03:38:26;15.40;;;4.40;;
42200;SDS011;27869;51.442;7.540;2022-08-21T03:40:53;15.48;;;4.90;;
42200;SDS011;27869;51.442;7.540;2022-08-21T03:43:20;15.60;;;4.95;;
42200;SDS011;27869;51.442;7.540;2022-08-21T03:45:48;17.88;;;5.25;;
42200;SDS011;27869;51.442;7.540;2022-08-21T03:48:15;18.65;;;4.78;;
42200;SDS011;27869;51.442;7.540;2022-08-21T03:50:43;15.65;;;4.80;;
42200;SDS011;27869;51.442;7.540;2022-08-21T03:53:12;14.65;;;4.85;;
42200;SDS011;27869;51.442;7.540;2022-08-21T03:55:41;17.48;;;5.35;;
42200;SDS011;27869;51.442;7.540;2022-08-21T03:58:09;14.43;;;4.70;;
42200;SDS011;27869;51.442;7.540;2022-08-21T04:00:36;14.88;;;4.93;;
42200;SDS011;27869;51.442;7.540;2022-08-21T04:03:03;19.02;;;5.00;;
42200;SDS011;27869;51.442;7.540;2022-08-21T04:05:31;15.65;;;4.88;;
42200;SDS011;27869;51.442;7.540;2022-08-21T04:07:59;14.93;;;4.43;;
42200;SDS011;27869;51.442;7.540;2022-08-21T04:10:29;16.23;;;5.60;;
42200;SDS011;27869;51.442;7.540;2022-08-21T04:12:58;17.83;;;4.78;;
42200;SDS011;27869;51.442;7.540;2022-08-21T04:15:26;17.70;;;4.75;;
42200;SDS011;27869;51.442;7.540;2022-08-21T04:17:53;17.58;;;4.80;;
42200;SDS011;27869;51.442;7.540;2022-08-21T04:20:21;15.25;;;4.95;;
42200;SDS011;27869;51.442;7.540;2022-08-21T04:22:49;13.60;;;5.32;;
42200;SDS011;27869;51.442;7.540;2022-08-21T04:25:16;16.80;;;5.22;;
42200;SDS011;27869;51.442;7.540;2022-08-21T04:27:46;13.85;;;5.40;;
42200;SDS011;27869;51.442;7.540;2022-08-21T04:30:14;15.13;;;5.22;;
42200;SDS011;27869;51.442;7.540;2022-08-21T04:32:43;14.02;;;5.18;;
42200;SDS011;27869;51.442;7.540;2022-08-21T04:35:11;13.98;;;5.00;;
42200;SDS011;27869;51.442;7.540;2022-08-21T04:37:39;15.27;;;5.25;;
42200;SDS011;27869;51.442;7.540;2022-08-21T04:40:07;17.58;;;6.07;;
42200;SDS011;27869;51.442;7.540;2022-08-21T04:42:40;16.48;;;5.50;;
42200;SDS011;27869;51.442;7.540;2022-08-21T04:45:09;17.75;;;5.50;;
42200;SDS011;27869;51.442;7.540;2022-08-21T04:47:42;19.35;;;5.30;;
42200;SDS011;27869;51.442;7.540;2022-08-21T04:50:08;16.83;;;5.30;;
42200;SDS011;27869;51.442;7.540;2022-08-21T04:52:35;13.13;;;5.13;;
42200;SDS011;27869;51.442;7.540;2022-08-21T04:55:03;15.57;;;5.05;;
42200;SDS011;27869;51.442;7.540;2022-08-21T04:57:30;14.98;;;5.55;;
42200;SDS011;27869;51.442;7.540;2022-08-21T04:59:57;15.18;;;5.85;;
42200;SDS011;27869;51.442;7.540;2022-08-21T05:02:26;16.02;;;5.32;;
42200;SDS011;27869;51.442;7.540;2022-08-21T05:04:53;20.13;;;5.30;;
42200;SDS011;27869;51.442;7.540;2022-08-21T05:07:22;16.38;;;5.55;;
42200;SDS011;27869;51.442;7.540;2022-08-21T05:09:52;14.98;;;5.18;;
42200;SDS011;27869;51.442;7.540;2022-08-21T05:12:20;17.10;;;5.25;;
42200;SDS011;27869;51.442;7.540;2022-08-21T05:14:48;15.40;;;5.18;;
42200;SDS011;27869;51.442;7.540;2022-08-21T05:17:14;13.98;;;5.32;;
42200;SDS011;27869;51.442;7.540;2022-08-21T05:19:43;16.70;;;5.40;;
42200;SDS011;27869;51.442;7.540;2022-08-21T05:22:10;15.35;;;4.88;;
42200;SDS011;27869;51.442;7.540;2022-08-21T05:24:37;15.38;;;5.40;;
42200;SDS011;27869;51.442;7.540;2022-08-21T05:27:04;13.80;;;5.72;;
42200;SDS011;27869;51.442;7.540;2022-08-21T05:29:32;22.90;;;5.82;;
42200;SDS011;27869;51.442;7.540;2022-08-21T05:31:59;15.07;;;5.13;;
42200;SDS011;27869;51.442;7.540;2022-08-21T05:34:26;14.88;;;6.07;;
42200;SDS011;27869;51.442;7.540;2022-08-21T05:36:54;14.00;;;5.30;;
42200;SDS011;27869;51.442;7.540;2022-08-21T05:39:21;12.90;;;5.00;;
42200;SDS011;27869;51.442;7.540;2022-08-21T05:41:48;17.35;;;5.78;;
42200;SDS011;27869;51.442;7.540;2022-08-21T05:44:15;17.90;;;5.90;;
42200;SDS011;27869;51.442;7.540;2022-08-21T05:46:42;18.00;;;5.70;;
42200;SDS011;27869;51.442;7.540;2022-08-21T05:49:08;15.45;;;5.95;;
42200;SDS011;27869;51.442;7.540;2022-08-21T05:51:37;17.50;;;6.30;;
42200;SDS011;27869;51.442;7.540;2022-08-21T05:54:07;17.02;;;5.75;;
42200;SDS011;27869;51.442;7.540;2022-08-21T05:56:34;15.95;;;5.75;;
42200;SDS011;27869;51.442;7.540;2022-08-21T05:59:01;21.52;;;6.93;;
42200;SDS011;27869;51.442;7.540;2022-08-21T06:01:27;16.38;;;6.30;;
42200;SDS011;27869;51.442;7.540;2022-08-21T06:03:55;16.48;;;6.45;;
42200;SDS011;27869;51.442;7.540;2022-08-21T06:06:21;17.52;;;6.63;;
42200;SDS011;27869;51.442;7.540;2022-08-21T06:08:49;18.15;;;6.13;;
42200;SDS011;27869;51.442;7.540;2022-08-21T06:11:17;14.90;;;6.38;;
42200;SDS011;27869;51.442;7.540;2022-08-21T06:13:44;16.27;;;6.32;;
42200;SDS011;27869;51.442;7.540;2022-08-21T06:16:12;16.50;;;6.32;;
42200;SDS011;27869;51.442;7.540;2022-08-21T06:18:40;15.50;;;5.95;;
42200;SDS011;27869;51.442;7.540;2022-08-21T06:21:08;18.67;;;6.22;;
42200;SDS011;27869;51.442;7.540;2022-08-21T06:23:36;16.15;;;6.57;;
42200;SDS011;27869;51.442;7.540;2022-08-21T06:26:04;15.88;;;6.25;;
42200;SDS011;27869;51.442;7.540;2022-08-21T06:28:33;20.23;;;7.07;;
42200;SDS011;27869;51.442;7.540;2022-08-21T06:31:09;16.08;;;5.70;;
42200;SDS011;27869;51.442;7.540;2022-08-21T06:33:37;18.60;;;5.80;;
42200;SDS011;27869;51.442;7.540;2022-08-21T06:36:04;20.15;;;6.80;;
42200;SDS011;27869;51.442;7.540;2022-08-21T06:38:31;15.27;;;5.50;;
42200;SDS011;27869;51.442;7.540;2022-08-21T06:40:59;16.20;;;5.80;;
42200;SDS011;27869;51.442;7.540;2022-08-21T06:43:25;14.70;;;5.65;;
42200;SDS011;27869;51.442;7.540;2022-08-21T06:45:54;14.50;;;5.57;;
42200;SDS011;27869;51.442;7.540;2022-08-21T06:48:21;16.38;;;5.90;;
42200;SDS011;27869;51.442;7.540;2022-08-21T06:50:48;15.02;;;5.05;;
42200;SDS011;27869;51.442;7.540;2022-08-21T06:53:16;17.20;;;4.53;;
42200;SDS011;27869;51.442;7.540;2022-08-21T06:55:45;15.63;;;5.03;;
42200;SDS011;27869;51.442;7.540;2022-08-21T06:58:13;15.10;;;4.80;;
42200;SDS011;27869;51.442;7.540;2022-08-21T07:00:41;15.23;;;4.78;;
42200;SDS011;27869;51.442;7.540;2022-08-21T07:03:17;14.55;;;4.55;;
42200;SDS011;27869;51.442;7.540;2022-08-21T07:05:48;16.40;;;4.22;;
42200;SDS011;27869;51.442;7.540;2022-08-21T07:08:15;15.05;;;4.32;;
42200;SDS011;27869;51.442;7.540;2022-08-21T07:10:43;15.70;;;4.95;;
42200;SDS011;27869;51.442;7.540;2022-08-21T07:13:10;16.50;;;4.80;;
42200;SDS011;27869;51.442;7.540;2022-08-21T07:15:37;13.15;;;4.65;;
42200;SDS011;27869;51.442;7.540;2022-08-21T07:18:04;18.23;;;5.15;;
42200;SDS011;27869;51.442;7.540;2022-08-21T07:20:33;16.10;;;4.57;;
42200;SDS011;27869;51.442;7.540;2022-08-21T07:23:01;17.13;;;4.38;;
42200;SDS011;27869;51.442;7.540;2022-08-21T07:25:30;14.73;;;4.20;;
42200;SDS011;27869;51.442;7.540;2022-08-21T07:27:57;15.60;;;3.63;;
42200;SDS011;27869;51.442;7.540;2022-08-21T07:30:24;14.82;;;3.90;;
42200;SDS011;27869;51.442;7.540;2022-08-21T07:32:51;12.95;;;3.88;;
42200;SDS011;27869;51.442;7.540;2022-08-21T07:35:19;13.98;;;3.95;;
42200;SDS011;27869;51.442;7.540;2022-08-21T07:37:48;15.82;;;4.00;;
42200;SDS011;27869;51.442;7.540;2022-08-21T07:40:15;12.77;;;3.90;;
42200;SDS011;27869;51.442;7.540;2022-08-21T07:42:44;17.38;;;4.18;;
42200;SDS011;27869;51.442;7.540;2022-08-21T07:45:12;13.48;;;3.88;;
42200;SDS011;27869;51.442;7.540;2022-08-21T07:47:40;19.77;;;4.70;;
42200;SDS011;27869;51.442;7.540;2022-08-21T07:50:07;14.32;;;4.22;;
42200;SDS011;27869;51.442;7.540;2022-08-21T07:52:34;14.02;;;3.97;;
42200;SDS011;27869;51.442;7.540;2022-08-21T07:55:03;14.95;;;5.00;;
42200;SDS011;27869;51.442;7.540;2022-08-21T07:57:31;15.57;;;4.70;;
42200;SDS011;27869;51.442;7.540;2022-08-21T07:59:58;16.85;;;4.93;;
42200;SDS011;27869;51.442;7.540;2022-08-21T08:02:26;17.13;;;5.25;;
42200;SDS011;27869;51.442;7.540;2022-08-21T08:04:54;14.73;;;4.35;;
42200;SDS011;27869;51.442;7.540;2022-08-21T08:07:24;16.80;;;4.68;;
42200;SDS011;27869;51.442;7.540;2022-08-21T08:09:51;16.85;;;5.00;;
42200;SDS011;27869;51.442;7.540;2022-08-21T08:12:19;16.35;;;4.95;;
42200;SDS011;27869;51.442;7.540;2022-08-21T08:14:46;15.90;;;4.63;;
42200;SDS011;27869;51.442;7.540;2022-08-21T08:17:13;15.88;;;4.90;;
42200;SDS011;27869;51.442;7.540;2022-08-21T08:19:40;14.35;;;4.43;;
42200;SDS011;27869;51.442;7.540;2022-08-21T08:22:12;12.32;;;4.03;;
42200;SDS011;27869;51.442;7.540;2022-08-21T08:24:40;16.77;;;4.32;;
42200;SDS011;27869;51.442;7.540;2022-08-21T08:27:07;20.70;;;4.50;;
42200;SDS011;27869;51.442;7.540;2022-08-21T08:29:35;15.38;;;4.22;;
42200;SDS011;27869;51.442;7.540;2022-08-21T08:32:02;14.68;;;4.03;;
42200;SDS011;27869;51.442;7.540;2022-08-21T08:34:32;13.93;;;4.00;;
42200;SDS011;27869;51.442;7.540;2022-08-21T08:36:59;14.90;;;3.80;;
42200;SDS011;27869;51.442;7.540;2022-08-21T08:39:26;15.25;;;3.70;;
42200;SDS011;27869;51.442;7.540;2022-08-21T08:41:54;15.80;;;3.55;;
42200;SDS011;27869;51.442;7.540;2022-08-21T08:44:25;15.10;;;3.53;;
42200;SDS011;27869;51.442;7.540;2022-08-21T08:46:54;15.23;;;3.70;;
42200;SDS011;27869;51.442;7.540;2022-08-21T08:49:23;12.15;;;3.40;;
42200;SDS011;27869;51.442;7.540;2022-08-21T08:51:53;15.20;;;3.58;;
42200;SDS011;27869;51.442;7.540;2022-08-21T08:54:27;13.52;;;3.35;;
42200;SDS011;27869;51.442;7.540;2022-08-21T08:56:58;14.07;;;3.20;;
42200;SDS011;27869;51.442;7.540;2022-08-21T09:01:59;15.73;;;3.58;;
42200;SDS011;27869;51.442;7.540;2022-08-21T09:04:26;14.45;;;3.80;;
42200;SDS011;27869;51.442;7.540;2022-08-21T09:07:00;14.55;;;3.30;;
42200;SDS011;27869;51.442;7.540;2022-08-21T09:09:41;15.45;;;3.40;;
42200;SDS011;27869;51.442;7.540;2022-08-21T09:12:19;13.43;;;2.80;;
42200;SDS011;27869;51.442;7.540;2022-08-21T09:14:58;15.30;;;2.70;;
42200;SDS011;27869;51.442;7.540;2022-08-21T09:17:37;17.08;;;2.60;;
42200;SDS011;27869;51.442;7.540;2022-08-21T09:20:16;11.02;;;2.83;;
42200;SDS011;27869;51.442;7.540;2022-08-21T09:22:53;10.95;;;2.20;;
42200;SDS011;27869;51.442;7.540;2022-08-21T09:25:30;13.80;;;2.75;;
42200;SDS011;27869;51.442;7.540;2022-08-21T09:28:00;11.07;;;2.58;;
42200;SDS011;27869;51.442;7.540;2022-08-21T09:30:28;13.18;;;2.50;;
42200;SDS011;27869;51.442;7.540;2022-08-21T09:32:58;11.70;;;2.65;;
42200;SDS011;27869;51.442;7.540;2022-08-21T09:35:25;9.50;;;2.20;;
42200;SDS011;27869;51.442;7.540;2022-08-21T09:37:53;15.85;;;2.28;;
42200;SDS011;27869;51.442;7.540;2022-08-21T09:40:26;10.93;;;2.00;;
42200;SDS011;27869;51.442;7.540;2022-08-21T09:42:57;11.13;;;1.90;;
42200;SDS011;27869;51.442;7.540;2022-08-21T09:45:25;11.18;;;1.90;;
42200;SDS011;27869;51.442;7.540;2022-08-21T09:47:53;11.45;;;2.25;;
42200;SDS011;27869;51.442;7.540;2022-08-21T09:50:23;9.65;;;1.73;;
42200;SDS011;27869;51.442;7.540;2022-08-21T09:52:53;10.60;;;2.30;;
42200;SDS011;27869;51.442;7.540;2022-08-21T09:55:28;11.85;;;1.92;;
42200;SDS011;27869;51.442;7.540;2022-08-21T09:58:16;10.70;;;2.05;;
42200;SDS011;27869;51.442;7.540;2022-08-21T10:00:49;10.32;;;2.15;;
42200;SDS011;27869;51.442;7.540;2022-08-21T10:03:23;11.45;;;2.45;;
42200;SDS011;27869;51.442;7.540;2022-08-21T10:05:54;10.77;;;2.58;;
42200;SDS011;27869;51.442;7.540;2022-08-21T10:08:23;9.63;;;1.95;;
42200;SDS011;27869;51.442;7.540;2022-08-21T10:10:54;10.90;;;1.90;;
42200;SDS011;27869;51.442;7.540;2022-08-21T10:13:28;11.15;;;2.20;;
42200;SDS011;27869;51.442;7.540;2022-08-21T10:16:13;9.15;;;1.80;;
42200;SDS011;27869;51.442;7.540;2022-08-21T10:18:50;9.60;;;1.60;;
42200;SDS011;27869;51.442;7.540;2022-08-21T10:21:30;10.43;;;2.20;;
42200;SDS011;27869;51.442;7.540;2022-08-21T10:24:04;13.15;;;2.10;;
42200;SDS011;27869;51.442;7.540;2022-08-21T10:26:38;13.98;;;1.95;;
42200;SDS011;27869;51.442;7.540;2022-08-21T10:29:22;11.10;;;1.92;;
42200;SDS011;27869;51.442;7.540;2022-08-21T10:32:04;12.95;;;2.10;;
42200;SDS011;27869;51.442;7.540;2022-08-21T10:34:47;10.95;;;1.80;;
42200;SDS011;27869;51.442;7.540;2022-08-21T10:37:25;10.63;;;1.92;;
42200;SDS011;27869;51.442;7.540;2022-08-21T10:40:07;10.43;;;1.90;;
42200;SDS011;27869;51.442;7.540;2022-08-21T10:42:43;8.55;;;1.65;;
42200;SDS011;27869;51.442;7.540;2022-08-21T10:45:25;8.30;;;1.77;;
42200;SDS011;27869;51.442;7.540;2022-08-21T10:48:03;9.95;;;1.70;;
42200;SDS011;27869;51.442;7.540;2022-08-21T10:50:34;12.10;;;2.42;;
42200;SDS011;27869;51.442;7.540;2022-08-21T10:53:14;11.63;;;2.00;;
42200;SDS011;27869;51.442;7.540;2022-08-21T10:55:56;11.82;;;1.83;;
42200;SDS011;27869;51.442;7.540;2022-08-21T10:58:29;10.43;;;1.58;;
42200;SDS011;27869;51.442;7.540;2022-08-21T11:01:00;10.23;;;1.83;;
42200;SDS011;27869;51.442;7.540;2022-08-21T11:03:34;10.13;;;2.05;;
42200;SDS011;27869;51.442;7.540;2022-08-21T11:06:08;11.82;;;2.03;;
42200;SDS011;27869;51.442;7.540;2022-08-21T11:08:43;10.82;;;1.73;;
42200;SDS011;27869;51.442;7.540;2022-08-21T11:11:12;11.30;;;1.90;;
42200;SDS011;27869;51.442;7.540;2022-08-21T11:13:44;10.27;;;1.70;;
42200;SDS011;27869;51.442;7.540;2022-08-21T11:16:21;9.25;;;1.90;;
42200;SDS011;27869;51.442;7.540;2022-08-21T11:18:57;10.98;;;1.90;;
42200;SDS011;27869;51.442;7.540;2022-08-21T11:21:41;12.02;;;2.03;;
42200;SDS011;27869;51.442;7.540;2022-08-21T11:24:19;9.95;;;1.58;;
42200;SDS011;27869;51.442;7.540;2022-08-21T11:26:54;10.60;;;1.83;;
42200;SDS011;27869;51.442;7.540;2022-08-21T11:29:28;9.55;;;1.58;;
42200;SDS011;27869;51.442;7.540;2022-08-21T11:32:01;7.22;;;1.90;;
42200;SDS011;27869;51.442;7.540;2022-08-21T11:34:47;11.60;;;1.98;;
42200;SDS011;27869;51.442;7.540;2022-08-21T11:37:25;8.35;;;1.55;;
42200;SDS011;27869;51.442;7.540;2022-08-21T11:40:10;10.45;;;1.80;;
42200;SDS011;27869;51.442;7.540;2022-08-21T11:42:46;10.15;;;1.80;;
42200;SDS011;27869;51.442;7.540;2022-08-21T11:45:22;8.88;;;1.55;;
42200;SDS011;27869;51.442;7.540;2022-08-21T11:47:58;8.18;;;1.70;;
42200;SDS011;27869;51.442;7.540;2022-08-21T11:50:33;10.30;;;1.73;;
42200;SDS011;27869;51.442;7.540;2022-08-21T11:53:08;11.00;;;1.80;;
42200;SDS011;27869;51.442;7.540;2022-08-21T11:55:38;7.45;;;1.60;;
42200;SDS011;27869;51.442;7.540;2022-08-21T11:58:10;9.43;;;1.63;;
42200;SDS011;27869;51.442;7.540;2022-08-21T12:00:42;9.63;;;1.90;;
42200;SDS011;27869;51.442;7.540;2022-08-21T12:03:14;9.05;;;1.73;;
42200;SDS011;27869;51.442;7.540;2022-08-21T12:05:51;10.00;;;1.65;;
42200;SDS011;27869;51.442;7.540;2022-08-21T12:08:26;7.85;;;1.45;;
42200;SDS011;27869;51.442;7.540;2022-08-21T12:11:00;7.35;;;1.50;;
42200;SDS011;27869;51.442;7.540;2022-08-21T12:13:32;7.93;;;1.35;;
42200;SDS011;27869;51.442;7.540;2022-08-21T12:16:11;6.18;;;1.13;;
42200;SDS011;27869;51.442;7.540;2022-08-21T12:18:39;6.32;;;1.17;;
42200;SDS011;27869;51.442;7.540;2022-08-21T12:23:47;9.43;;;1.42;;
42200;SDS011;27869;51.442;7.540;2022-08-21T12:26:20;7.95;;;1.40;;
42200;SDS011;27869;51.442;7.540;2022-08-21T12:28:51;6.03;;;1.23;;
42200;SDS011;27869;51.442;7.540;2022-08-21T12:31:29;5.90;;;1.35;;
42200;SDS011;27869;51.442;7.540;2022-08-21T12:33:58;7.07;;;1.10;;
42200;SDS011;27869;51.442;7.540;2022-08-21T12:36:38;8.68;;;1.30;;
42200;SDS011;27869;51.442;7.540;2022-08-21T12:39:14;6.45;;;1.23;;
42200;SDS011;27869;51.442;7.540;2022-08-21T12:44:17;8.18;;;1.20;;
42200;SDS011;27869;51.442;7.540;2022-08-21T12:46:50;7.00;;;1.20;;
42200;SDS011;27869;51.442;7.540;2022-08-21T12:49:23;7.82;;;1.52;;
42200;SDS011;27869;51.442;7.540;2022-08-21T12:51:56;9.82;;;1.60;;
42200;SDS011;27869;51.442;7.540;2022-08-21T12:54:29;5.32;;;1.15;;
42200;SDS011;27869;51.442;7.540;2022-08-21T12:57:00;6.35;;;1.38;;
42200;SDS011;27869;51.442;7.540;2022-08-21T12:59:28;6.63;;;1.17;;
42200;SDS011;27869;51.442;7.540;2022-08-21T13:01:56;8.48;;;1.48;;
42200;SDS011;27869;51.442;7.540;2022-08-21T13:04:29;5.25;;;1.02;;
42200;SDS011;27869;51.442;7.540;2022-08-21T13:07:04;7.15;;;1.45;;
42200;SDS011;27869;51.442;7.540;2022-08-21T13:09:36;6.90;;;1.25;;
42200;SDS011;27869;51.442;7.540;2022-08-21T13:12:09;8.38;;;1.63;;
42200;SDS011;27869;51.442;7.540;2022-08-21T13:14:38;7.93;;;1.38;;
42200;SDS011;27869;51.442;7.540;2022-08-21T13:17:07;6.60;;;1.27;;
42200;SDS011;27869;51.442;7.540;2022-08-21T13:19:36;6.93;;;1.30;;
42200;SDS011;27869;51.442;7.540;2022-08-21T13:22:03;5.85;;;0.98;;
42200;SDS011;27869;51.442;7.540;2022-08-21T13:24:37;8.27;;;1.40;;
42200;SDS011;27869;51.442;7.540;2022-08-21T13:27:16;7.93;;;1.35;;
42200;SDS011;27869;51.442;7.540;2022-08-21T13:29:47;5.53;;;1.13;;
42200;SDS011;27869;51.442;7.540;2022-08-21T13:32:18;5.45;;;1.30;;
42200;SDS011;27869;51.442;7.540;2022-08-21T13:34:49;7.85;;;1.13;;
42200;SDS011;27869;51.442;7.540;2022-08-21T13:37:16;6.20;;;1.33;;
42200;SDS011;27869;51.442;7.540;2022-08-21T13:39:48;7.07;;;1.30;;
42200;SDS011;27869;51.442;7.540;2022-08-21T13:42:18;6.93;;;1.10;;
42200;SDS011;27869;51.442;7.540;2022-08-21T13:44:46;5.78;;;1.00;;
42200;SDS011;27869;51.442;7.540;2022-08-21T13:47:15;4.78;;;1.10;;
42200;SDS011;27869;51.442;7.540;2022-08-21T13:49:43;5.95;;;1.08;;
42200;SDS011;27869;51.442;7.540;2022-08-21T13:52:14;7.75;;;1.30;;
42200;SDS011;27869;51.442;7.540;2022-08-21T13:54:43;4.95;;;0.95;;
42200;SDS011;27869;51.442;7.540;2022-08-21T13:57:19;7.57;;;1.20;;
42200;SDS011;27869;51.442;7.540;2022-08-21T13:59:52;5.57;;;1.17;;
42200;SDS011;27869;51.442;7.540;2022-08-21T14:02:19;6.40;;;1.15;;
42200;SDS011;27869;51.442;7.540;2022-08-21T14:04:50;7.43;;;1.58;;
42200;SDS011;27869;51.442;7.540;2022-08-21T14:07:23;5.47;;;1.02;;
42200;SDS011;27869;51.442;7.540;2022-08-21T14:09:52;7.43;;;1.40;;
42200;SDS011;27869;51.442;7.540;2022-08-21T14:12:24;5.00;;;1.10;;
42200;SDS011;27869;51.442;7.540;2022-08-21T14:14:53;6.35;;;1.30;;
42200;SDS011;27869;51.442;7.540;2022-08-21T14:17:26;4.60;;;1.02;;
42200;SDS011;27869;51.442;7.540;2022-08-21T14:19:54;5.72;;;0.98;;
42200;SDS011;27869;51.442;7.540;2022-08-21T14:22:36;4.95;;;1.08;;
42200;SDS011;27869;51.442;7.540;2022-08-21T14:25:07;8.23;;;1.25;;
42200;SDS011;27869;51.442;7.540;2022-08-21T14:27:40;8.70;;;1.20;;
42200;SDS011;27869;51.442;7.540;2022-08-21T14:30:12;7.85;;;1.10;;
42200;SDS011;27869;51.442;7.540;2022-08-21T14:32:47;4.97;;;1.20;;
42200;SDS011;27869;51.442;7.540;2022-08-21T14:35:14;4.95;;;1.02;;
42200;SDS011;27869;51.442;7.540;2022-08-21T14:37:42;6.70;;;1.25;;
42200;SDS011;27869;51.442;7.540;2022-08-21T14:40:11;5.78;;;0.93;;
42200;SDS011;27869;51.442;7.540;2022-08-21T14:42:40;6.40;;;1.20;;
42200;SDS011;27869;51.442;7.540;2022-08-21T14:45:10;6.25;;;1.23;;
42200;SDS011;27869;51.442;7.540;2022-08-21T14:47:40;7.57;;;1.35;;
42200;SDS011;27869;51.442;7.540;2022-08-21T14:50:08;9.20;;;1.30;;
42200;SDS011;27869;51.442;7.540;2022-08-21T14:52:35;7.32;;;1.40;;
42200;SDS011;27869;51.442;7.540;2022-08-21T14:55:02;6.97;;;1.40;;
42200;SDS011;27869;51.442;7.540;2022-08-21T14:57:30;7.63;;;1.30;;
42200;SDS011;27869;51.442;7.540;2022-08-21T14:59:59;6.55;;;1.30;;
42200;SDS011;27869;51.442;7.540;2022-08-21T15:02:26;5.95;;;1.40;;
42200;SDS011;27869;51.442;7.540;2022-08-21T15:04:53;6.22;;;1.17;;
42200;SDS011;27869;51.442;7.540;2022-08-21T15:07:20;4.80;;;1.02;;
42200;SDS011;27869;51.442;7.540;2022-08-21T15:09:47;6.90;;;1.40;;